createdAt,value
2023-03-11T00:22:55.446Z,2.65
2023-03-11T00:53:13.203Z,2.45
2023-03-11T01:23:31.669Z,2.3
2023-03-11T01:53:50.519Z,2.45
2023-03-11T02:24:08.582Z,2.35
2023-03-11T02:54:26.351Z,2.45
2023-03-11T03:24:45.947Z,2.2
2023-03-11T03:55:03.550Z,2.3
2023-03-11T04:25:22.172Z,2.15
2023-03-11T04:55:40.149Z,2.1
2023-03-11T05:25:58.368Z,1.75
2023-03-11T05:56:15.373Z,1.15
2023-03-11T06:26:34.048Z,2.9
2023-03-11T06:57:15.698Z,6.75
2023-03-11T07:27:42.406Z,6.45
2023-03-11T07:58:03.790Z,9.7
2023-03-11T08:28:26.383Z,10.1
2023-03-11T08:58:37.795Z,6.55
2023-03-11T09:28:46.578Z,5.55
2023-03-11T09:59:06.563Z,5.8
2023-03-11T10:29:39.808Z,10.55
2023-03-11T11:00:18.540Z,8.25
2023-03-11T11:30:16.879Z,7.1
2023-03-11T12:00:31.920Z,6.7
2023-03-11T12:30:52.784Z,6.85
2023-03-11T13:01:13.412Z,6.8
2023-03-11T13:31:24.423Z,5.95
2023-03-11T14:01:39.635Z,5.9
2023-03-11T14:31:58.832Z,6
2023-03-11T15:02:17.436Z,6.45
2023-03-11T15:32:34.387Z,6
2023-03-11T16:02:47.276Z,5
2023-03-11T16:33:04.772Z,4.6
2023-03-11T17:03:24.827Z,4.5
2023-03-11T17:33:40.999Z,4
2023-03-11T18:34:15.838Z,3.15
2023-03-11T19:04:31.791Z,2.7
2023-03-11T19:34:51.951Z,2.6
2023-03-11T20:05:10.370Z,1.9
2023-03-11T20:35:26.492Z,1.65
2023-03-11T21:05:43.867Z,1.25
2023-03-11T21:36:03.364Z,0.95
2023-03-11T22:06:20.951Z,0.75
2023-03-11T22:36:39.798Z,0.25
2023-03-11T23:06:59.545Z,0.1
2023-03-11T23:37:17.090Z,0.05
